createdAt,value
2019-05-17T00:00:24.382Z,988.25
2019-05-17T00:01:26.881Z,988.28
2019-05-17T00:02:26.416Z,988.25
2019-05-17T00:03:24.329Z,988.25
2019-05-17T00:04:24.321Z,988.26
2019-05-17T00:05:26.358Z,988.25
2019-05-17T00:06:24.314Z,988.23
2019-05-17T00:07:24.297Z,988.17
2019-05-17T00:08:31.956Z,988.19
2019-05-17T00:09:26.755Z,988.21
2019-05-17T00:10:26.375Z,988.16
2019-05-17T00:11:24.241Z,988.16
2019-05-17T00:12:24.247Z,988.12
2019-05-17T00:13:26.714Z,988.10
2019-05-17T00:14:24.209Z,988.08
2019-05-17T00:15:24.198Z,988.08
2019-05-17T00:16:24.185Z,988.07
2019-05-17T00:17:26.608Z,988.04
2019-05-17T00:18:26.327Z,988.06
2019-05-17T00:19:26.181Z,988.03
2019-05-17T00:20:26.466Z,988.04
2019-05-17T00:21:24.139Z,988.01
2019-05-17T00:22:24.119Z,988.00
2019-05-17T00:23:24.119Z,987.95
2019-05-17T00:24:26.360Z,987.99
2019-05-17T00:25:24.089Z,987.98
2019-05-17T00:26:24.075Z,987.94
2019-05-17T00:27:26.363Z,987.97
2019-05-17T00:28:24.056Z,987.88
2019-05-17T00:29:26.322Z,987.92
2019-05-17T00:30:26.383Z,987.89
2019-05-17T00:31:26.173Z,987.83
2019-05-17T00:32:24.012Z,987.86
2019-05-17T00:33:24.001Z,987.83
2019-05-17T00:34:23.989Z,987.85
2019-05-17T00:35:23.978Z,987.81
2019-05-17T00:36:23.987Z,987.82
2019-05-17T00:37:26.322Z,987.82
2019-05-17T00:38:23.950Z,987.80
2019-05-17T00:39:23.943Z,987.77
2019-05-17T00:40:23.926Z,987.82
2019-05-17T00:41:23.912Z,987.72
2019-05-17T00:42:26.276Z,987.75
2019-05-17T00:43:26.117Z,987.73
2019-05-17T00:44:23.879Z,987.67
2019-05-17T00:45:23.871Z,987.74
2019-05-17T00:46:23.861Z,987.68
2019-05-17T00:47:23.857Z,987.67
2019-05-17T00:48:23.864Z,987.67
2019-05-17T00:49:23.830Z,987.70
2019-05-17T00:50:23.815Z,987.71
2019-05-17T00:51:23.808Z,987.69
2019-05-17T00:52:23.797Z,987.66
2019-05-17T00:53:23.787Z,987.65
2019-05-17T00:54:23.793Z,987.63
2019-05-17T00:55:23.774Z,987.62
2019-05-17T00:56:23.766Z,987.64
2019-05-17T00:57:23.740Z,987.64
2019-05-17T00:58:23.728Z,987.62
2019-05-17T00:59:23.725Z,987.59
2019-05-17T01:00:23.730Z,987.53
2019-05-17T01:01:23.709Z,987.53
2019-05-17T01:02:23.699Z,987.55
2019-05-17T01:03:23.679Z,987.48
2019-05-17T01:04:23.664Z,987.58
2019-05-17T01:05:23.654Z,987.53
2019-05-17T01:06:23.664Z,987.51
2019-05-17T01:07:23.632Z,987.47
2019-05-17T01:08:23.639Z,987.43
2019-05-17T01:09:23.614Z,987.42
2019-05-17T01:10:23.598Z,987.46
2019-05-17T01:11:23.587Z,987.42
2019-05-17T01:12:23.593Z,987.47
2019-05-17T01:13:23.564Z,987.44
2019-05-17T01:14:23.561Z,987.38
2019-05-17T01:15:23.543Z,987.37
2019-05-17T01:16:23.535Z,987.40
2019-05-17T01:17:23.526Z,987.33
2019-05-17T01:18:23.528Z,987.27
2019-05-17T01:19:23.501Z,987.36
2019-05-17T01:20:23.510Z,987.32
2019-05-17T01:21:23.476Z,987.29
2019-05-17T01:22:23.468Z,987.27
2019-05-17T01:23:23.454Z,987.28
2019-05-17T01:24:23.466Z,987.25
2019-05-17T01:25:23.451Z,987.22
2019-05-17T01:26:23.424Z,987.26
2019-05-17T01:27:23.412Z,987.26
2019-05-17T01:28:23.399Z,987.23
2019-05-17T01:29:23.392Z,987.23
2019-05-17T01:30:23.402Z,987.28
2019-05-17T01:31:23.367Z,987.20
2019-05-17T01:32:23.359Z,987.21
2019-05-17T01:33:23.371Z,987.23
2019-05-17T01:34:23.342Z,987.25
2019-05-17T01:35:23.326Z,987.17
2019-05-17T01:36:23.342Z,987.22
2019-05-17T01:37:23.304Z,987.18
2019-05-17T01:38:23.315Z,987.17
2019-05-17T01:39:23.283Z,987.14
2019-05-17T01:40:23.275Z,987.16
2019-05-17T01:41:23.263Z,987.17
2019-05-17T01:42:23.275Z,987.16
2019-05-17T01:43:23.241Z,987.18
2019-05-17T01:44:23.255Z,987.11
2019-05-17T01:45:23.217Z,987.19
2019-05-17T01:46:23.209Z,987.16
2019-05-17T01:47:23.200Z,987.15
2019-05-17T01:48:23.208Z,987.17
2019-05-17T01:49:23.182Z,987.11
2019-05-17T01:50:23.166Z,987.08
2019-05-17T01:51:23.156Z,987.17
2019-05-17T01:52:23.149Z,987.14
2019-05-17T01:53:23.133Z,987.03
2019-05-17T01:54:23.141Z,987.11
2019-05-17T01:55:23.109Z,987.12
2019-05-17T01:56:23.102Z,987.09
2019-05-17T01:57:23.093Z,987.11
2019-05-17T01:58:23.079Z,987.05
2019-05-17T01:59:23.069Z,987.06
2019-05-17T02:00:23.077Z,987.00
2019-05-17T02:01:23.058Z,987.04
2019-05-17T02:02:23.038Z,987.04
2019-05-17T02:03:23.024Z,986.99
2019-05-17T02:04:23.018Z,986.91
2019-05-17T02:05:23.003Z,986.94
2019-05-17T02:06:23.009Z,987.00
2019-05-17T02:07:22.993Z,987.00
2019-05-17T02:08:22.978Z,986.94
2019-05-17T02:09:34.852Z,986.97
2019-05-17T02:10:23.948Z,986.96
2019-05-17T02:11:22.945Z,986.93
2019-05-17T02:12:22.948Z,986.91
2019-05-17T02:13:22.917Z,986.88
2019-05-17T02:14:22.906Z,986.90
2019-05-17T02:15:22.909Z,986.92
2019-05-17T02:16:22.896Z,986.92
2019-05-17T02:17:22.880Z,986.93
2019-05-17T02:18:22.888Z,986.98
2019-05-17T02:19:22.852Z,986.92
2019-05-17T02:20:22.845Z,986.98
2019-05-17T02:21:22.830Z,986.96
2019-05-17T02:22:22.830Z,986.89
2019-05-17T02:23:22.810Z,986.91
2019-05-17T02:24:22.820Z,986.84
2019-05-17T02:25:22.788Z,986.89
2019-05-17T02:26:22.783Z,986.86
2019-05-17T02:27:25.349Z,986.88
2019-05-17T02:28:23.757Z,986.89
2019-05-17T02:29:22.745Z,986.84
2019-05-17T02:30:23.511Z,986.86
2019-05-17T02:31:24.755Z,986.85
2019-05-17T02:32:23.457Z,986.85
2019-05-17T02:33:23.583Z,986.87
2019-05-17T02:34:23.349Z,986.83
2019-05-17T02:35:23.260Z,986.81
2019-05-17T02:36:23.016Z,986.85
2019-05-17T02:37:23.237Z,986.79
2019-05-17T02:38:22.673Z,986.80
2019-05-17T02:39:23.314Z,986.79
2019-05-17T02:40:22.823Z,986.75
2019-05-17T02:41:22.820Z,986.76
2019-05-17T02:42:22.630Z,986.78
2019-05-17T02:43:23.561Z,986.77
2019-05-17T02:44:23.522Z,986.77
2019-05-17T02:45:23.401Z,986.78
2019-05-17T02:46:23.167Z,986.75
2019-05-17T02:47:23.144Z,986.79
2019-05-17T02:48:23.389Z,986.86
2019-05-17T02:49:23.575Z,986.87
2019-05-17T02:50:23.324Z,986.80
2019-05-17T02:51:23.704Z,986.78
2019-05-17T02:52:23.108Z,986.77
2019-05-17T02:53:23.140Z,986.75
2019-05-17T02:54:23.527Z,986.77
2019-05-17T02:55:23.260Z,986.75
2019-05-17T02:56:23.213Z,986.77
2019-05-17T02:57:23.319Z,986.74
2019-05-17T02:58:23.278Z,986.73
2019-05-17T02:59:23.227Z,986.71
2019-05-17T03:00:23.871Z,986.73
2019-05-17T03:01:23.140Z,986.77
2019-05-17T03:02:27.546Z,986.72
2019-05-17T03:03:23.851Z,986.71
2019-05-17T03:04:23.583Z,986.71
2019-05-17T03:05:23.247Z,986.76
2019-05-17T03:06:22.865Z,986.74
2019-05-17T03:07:23.172Z,986.75
2019-05-17T03:08:23.534Z,986.71
2019-05-17T03:09:22.995Z,986.72
2019-05-17T03:10:28.479Z,986.68
2019-05-17T03:11:23.313Z,986.66
2019-05-17T03:12:23.674Z,986.65
2019-05-17T03:13:23.472Z,986.64
2019-05-17T03:14:22.926Z,986.63
2019-05-17T03:15:23.446Z,986.66
2019-05-17T03:16:23.670Z,986.60
2019-05-17T03:17:22.916Z,986.63
2019-05-17T03:18:23.058Z,986.57
2019-05-17T03:19:23.520Z,986.60
2019-05-17T03:20:23.229Z,986.62
2019-05-17T03:21:22.929Z,986.61
2019-05-17T03:22:23.176Z,986.59
2019-05-17T03:23:23.372Z,986.60
2019-05-17T03:24:22.726Z,986.61
2019-05-17T03:25:23.895Z,986.58
2019-05-17T03:26:23.066Z,986.55
2019-05-17T03:27:23.281Z,986.55
2019-05-17T03:28:23.535Z,986.56
2019-05-17T03:29:22.894Z,986.52
2019-05-17T03:30:25.788Z,986.53
2019-05-17T03:31:26.195Z,986.59
2019-05-17T03:32:26.668Z,986.54
2019-05-17T03:33:26.454Z,986.52
2019-05-17T03:34:26.663Z,986.55
2019-05-17T03:35:26.642Z,986.52
2019-05-17T03:36:26.196Z,986.52
2019-05-17T03:37:30.251Z,986.52
2019-05-17T03:38:22.988Z,986.50
2019-05-17T03:39:22.669Z,986.52
2019-05-17T03:40:46.965Z,986.57
2019-05-17T03:41:24.848Z,986.51
2019-05-17T03:42:22.948Z,986.53
2019-05-17T03:43:22.586Z,986.52
2019-05-17T03:44:22.543Z,986.53
2019-05-17T03:45:22.854Z,986.52
2019-05-17T03:46:23.181Z,986.49
2019-05-17T03:47:22.686Z,986.50
2019-05-17T03:48:22.253Z,986.49
2019-05-17T03:49:22.430Z,986.52
2019-05-17T03:50:22.676Z,986.52
2019-05-17T03:51:23.358Z,986.50
2019-05-17T03:52:22.431Z,986.54
2019-05-17T03:53:22.819Z,986.49
2019-05-17T03:54:22.615Z,986.50
2019-05-17T03:55:23.484Z,986.47
2019-05-17T03:56:22.450Z,986.45
2019-05-17T03:57:23.910Z,986.46
2019-05-17T03:58:23.523Z,986.45
2019-05-17T03:59:24.200Z,986.48
2019-05-17T04:00:23.265Z,986.46
2019-05-17T04:01:23.159Z,986.49
2019-05-17T04:02:23.100Z,986.42
2019-05-17T04:03:22.851Z,986.48
2019-05-17T04:04:22.880Z,986.43
2019-05-17T04:05:22.700Z,986.47
2019-05-17T04:06:23.897Z,986.40
2019-05-17T04:07:23.566Z,986.42
2019-05-17T04:08:23.010Z,986.45
2019-05-17T04:09:22.354Z,986.35
2019-05-17T04:10:22.877Z,986.40
2019-05-17T04:11:31.099Z,986.39
2019-05-17T04:12:23.302Z,986.35
2019-05-17T04:13:23.399Z,986.38
2019-05-17T04:14:22.553Z,986.41
2019-05-17T04:15:23.926Z,986.38
2019-05-17T04:16:23.777Z,986.35
2019-05-17T04:17:22.773Z,986.41
2019-05-17T04:18:23.517Z,986.40
2019-05-17T04:19:22.962Z,986.43
2019-05-17T04:20:22.357Z,986.42
2019-05-17T04:21:23.481Z,986.43
2019-05-17T04:22:23.914Z,986.41
2019-05-17T04:23:23.205Z,986.42
2019-05-17T04:24:23.047Z,986.46
2019-05-17T04:25:23.417Z,986.40
2019-05-17T04:26:22.955Z,986.41
2019-05-17T04:27:22.903Z,986.44
2019-05-17T04:28:22.927Z,986.42
2019-05-17T04:29:22.658Z,986.43
2019-05-17T04:30:23.386Z,986.42
2019-05-17T04:31:22.745Z,986.42
2019-05-17T04:32:23.304Z,986.42
2019-05-17T04:33:23.301Z,986.43
2019-05-17T04:34:22.449Z,986.41
2019-05-17T04:35:23.294Z,986.41
2019-05-17T04:36:22.447Z,986.38
2019-05-17T04:37:22.823Z,986.36
2019-05-17T04:38:23.606Z,986.36
2019-05-17T04:39:22.644Z,986.36
2019-05-17T04:40:23.169Z,986.36
2019-05-17T04:41:39.418Z,986.42
2019-05-17T04:42:22.808Z,986.38
2019-05-17T04:43:23.046Z,986.40
2019-05-17T04:44:23.145Z,986.40
2019-05-17T04:45:23.036Z,986.37
2019-05-17T04:46:23.623Z,986.34
2019-05-17T04:47:22.994Z,986.37
2019-05-17T04:48:23.280Z,986.41
2019-05-17T04:49:24.273Z,986.41
2019-05-17T04:50:23.122Z,986.37
2019-05-17T04:51:23.231Z,986.36
2019-05-17T04:52:22.738Z,986.39
2019-05-17T04:53:23.367Z,986.35
2019-05-17T04:54:22.707Z,986.35
2019-05-17T04:55:23.062Z,986.38
2019-05-17T04:56:22.770Z,986.36
2019-05-17T04:57:23.150Z,986.36
2019-05-17T04:58:23.257Z,986.38
2019-05-17T04:59:24.012Z,986.38
2019-05-17T05:00:21.952Z,986.36
2019-05-17T05:01:23.537Z,986.37
2019-05-17T05:02:23.584Z,986.34
2019-05-17T05:03:23.039Z,986.34
2019-05-17T05:04:22.582Z,986.30
2019-05-17T05:05:22.767Z,986.36
2019-05-17T05:06:23.290Z,986.35
2019-05-17T05:07:22.633Z,986.35
2019-05-17T05:08:22.430Z,986.31
2019-05-17T05:09:23.120Z,986.32
2019-05-17T05:10:22.509Z,986.35
2019-05-17T05:11:23.378Z,986.40
2019-05-17T05:12:22.846Z,986.38
2019-05-17T05:13:22.700Z,986.36
2019-05-17T05:14:23.313Z,986.35
2019-05-17T05:15:22.567Z,986.35
2019-05-17T05:16:22.542Z,986.34
2019-05-17T05:17:22.190Z,986.36
2019-05-17T05:18:22.159Z,986.30
2019-05-17T05:19:22.350Z,986.35
2019-05-17T05:20:22.106Z,986.34
2019-05-17T05:21:23.038Z,986.33
2019-05-17T05:22:22.470Z,986.37
2019-05-17T05:23:23.770Z,986.37
2019-05-17T05:24:22.244Z,986.37
2019-05-17T05:25:21.645Z,986.37
2019-05-17T05:26:22.279Z,986.40
2019-05-17T05:27:22.252Z,986.33
2019-05-17T05:28:22.537Z,986.30
2019-05-17T05:29:21.672Z,986.29
2019-05-17T05:30:22.548Z,986.25
2019-05-17T05:31:22.785Z,986.33
2019-05-17T05:32:22.056Z,986.26
2019-05-17T05:33:22.178Z,986.30
2019-05-17T05:34:21.617Z,986.30
2019-05-17T05:35:22.433Z,986.32
2019-05-17T05:36:22.097Z,986.31
2019-05-17T05:37:23.133Z,986.31
2019-05-17T05:38:21.648Z,986.33
2019-05-17T05:39:22.708Z,986.33
2019-05-17T05:40:21.390Z,986.28
2019-05-17T05:41:22.554Z,986.35
2019-05-17T05:42:22.103Z,986.27
2019-05-17T05:43:22.645Z,986.30
2019-05-17T05:44:21.536Z,986.29
2019-05-17T05:45:22.506Z,986.28
2019-05-17T05:46:22.376Z,986.30
2019-05-17T05:47:22.175Z,986.29
2019-05-17T05:48:21.754Z,986.31
2019-05-17T05:49:21.694Z,986.30
2019-05-17T05:50:21.806Z,986.35
2019-05-17T05:51:21.641Z,986.28
2019-05-17T05:52:21.843Z,986.31
2019-05-17T05:53:21.824Z,986.33
2019-05-17T05:54:22.480Z,986.31
2019-05-17T05:55:23.181Z,986.34
2019-05-17T05:56:22.029Z,986.34
2019-05-17T05:57:21.895Z,986.35
2019-05-17T05:58:23.573Z,986.32
2019-05-17T05:59:22.478Z,986.36
2019-05-17T06:00:22.131Z,986.37
2019-05-17T06:01:21.942Z,986.38
2019-05-17T06:02:21.740Z,986.37
2019-05-17T06:03:22.442Z,986.38
2019-05-17T06:04:22.302Z,986.32
2019-05-17T06:05:21.908Z,986.37
2019-05-17T06:06:21.547Z,986.33
2019-05-17T06:07:21.639Z,986.34
2019-05-17T06:08:22.524Z,986.31
2019-05-17T06:09:22.293Z,986.32
2019-05-17T06:10:21.846Z,986.35
2019-05-17T06:11:21.591Z,986.31
2019-05-17T06:12:24.706Z,986.31
2019-05-17T06:13:21.838Z,986.35
2019-05-17T06:14:21.613Z,986.32
2019-05-17T06:15:21.950Z,986.29
2019-05-17T06:16:22.546Z,986.31
2019-05-17T06:17:21.644Z,986.31
2019-05-17T06:18:22.499Z,986.33
2019-05-17T06:19:22.234Z,986.29
2019-05-17T06:20:22.338Z,986.29
2019-05-17T06:21:22.450Z,986.31
2019-05-17T06:22:22.239Z,986.28
2019-05-17T06:23:20.247Z,986.33
2019-05-17T06:24:22.409Z,986.32
2019-05-17T06:25:23.385Z,986.33
2019-05-17T06:26:23.479Z,986.29
2019-05-17T06:27:21.501Z,986.34
2019-05-17T06:28:22.166Z,986.34
2019-05-17T06:29:22.155Z,986.31
2019-05-17T06:30:21.997Z,986.28
2019-05-17T06:31:20.138Z,986.28
2019-05-17T06:32:22.768Z,986.35
2019-05-17T06:33:28.099Z,986.29
2019-05-17T06:34:22.300Z,986.30
2019-05-17T06:35:21.744Z,986.24
2019-05-17T06:36:21.716Z,986.28
2019-05-17T06:37:22.209Z,986.29
2019-05-17T06:38:22.258Z,986.26
2019-05-17T06:39:22.269Z,986.27
2019-05-17T06:40:21.675Z,986.24
2019-05-17T06:41:21.545Z,986.27
2019-05-17T06:42:21.667Z,986.28
2019-05-17T06:43:21.474Z,986.28
2019-05-17T06:44:21.614Z,986.28
2019-05-17T06:45:22.075Z,986.29
2019-05-17T06:46:21.968Z,986.28
2019-05-17T06:47:22.391Z,986.31
2019-05-17T06:48:22.317Z,986.27
2019-05-17T06:49:22.264Z,986.25
2019-05-17T06:50:19.944Z,986.27
2019-05-17T06:51:21.959Z,986.29
2019-05-17T06:52:22.502Z,986.32
2019-05-17T06:53:21.863Z,986.31
2019-05-17T06:54:21.615Z,986.33
2019-05-17T06:55:19.890Z,986.30
2019-05-17T06:56:19.901Z,986.29
2019-05-17T06:57:19.863Z,986.31
2019-05-17T06:58:22.101Z,986.28
2019-05-17T06:59:19.842Z,986.28
2019-05-17T07:00:23.784Z,986.27
2019-05-17T07:01:19.832Z,986.30
2019-05-17T07:02:19.857Z,986.26
2019-05-17T07:03:19.943Z,986.27
2019-05-17T07:04:19.810Z,986.33
2019-05-17T07:05:20.115Z,986.27
2019-05-17T07:06:21.487Z,986.30
2019-05-17T07:07:20.734Z,986.23
2019-05-17T07:08:20.175Z,986.25
2019-05-17T07:09:19.747Z,986.26
2019-05-17T07:10:19.770Z,986.26
2019-05-17T07:11:21.030Z,986.26
2019-05-17T07:12:20.337Z,986.24
2019-05-17T07:13:19.917Z,986.21
2019-05-17T07:14:20.111Z,986.27
2019-05-17T07:15:19.888Z,986.26
2019-05-17T07:16:19.795Z,986.23
2019-05-17T07:17:19.803Z,986.24
2019-05-17T07:18:19.636Z,986.24
2019-05-17T07:19:19.799Z,986.22
2019-05-17T07:20:19.613Z,986.20
2019-05-17T07:21:20.568Z,986.23
2019-05-17T07:22:21.257Z,986.17
2019-05-17T07:23:19.806Z,986.21
2019-05-17T07:24:19.732Z,986.20
2019-05-17T07:25:19.868Z,986.21
2019-05-17T07:26:19.812Z,986.18
2019-05-17T07:27:19.534Z,986.16
2019-05-17T07:28:19.990Z,986.23
2019-05-17T07:29:19.509Z,986.18
2019-05-17T07:30:19.644Z,986.20
2019-05-17T07:31:22.651Z,986.21
2019-05-17T07:32:19.531Z,986.22
2019-05-17T07:33:19.943Z,986.17
2019-05-17T07:34:19.985Z,986.11
2019-05-17T07:35:19.850Z,986.14
2019-05-17T07:36:19.752Z,986.20
2019-05-17T07:37:19.637Z,986.20
2019-05-17T07:38:19.909Z,986.15
2019-05-17T07:39:20.477Z,986.15
2019-05-17T07:40:19.823Z,986.13
2019-05-17T07:41:20.400Z,986.09
2019-05-17T07:42:19.610Z,986.11
2019-05-17T07:43:20.750Z,986.12
2019-05-17T07:44:20.522Z,986.08
2019-05-17T07:45:20.319Z,986.13
2019-05-17T07:46:20.660Z,986.11
2019-05-17T07:47:20.331Z,986.11
2019-05-17T07:48:19.958Z,986.07
2019-05-17T07:49:20.017Z,986.04
2019-05-17T07:50:20.041Z,986.07
2019-05-17T07:51:19.581Z,986.03
2019-05-17T07:52:20.636Z,986.00
2019-05-17T07:53:20.148Z,986.01
2019-05-17T07:54:19.736Z,986.01
2019-05-17T07:55:22.851Z,986.02
2019-05-17T07:56:20.021Z,985.97
2019-05-17T07:57:20.710Z,985.95
2019-05-17T07:58:21.466Z,985.90
2019-05-17T07:59:20.003Z,985.92
2019-05-17T08:00:20.141Z,985.92
2019-05-17T08:01:20.415Z,985.91
2019-05-17T08:02:19.856Z,985.93
2019-05-17T08:03:20.969Z,985.91
2019-05-17T08:04:20.479Z,985.87
2019-05-17T08:05:21.180Z,985.93
2019-05-17T08:06:19.855Z,985.86
2019-05-17T08:07:19.661Z,985.89
2019-05-17T08:08:20.805Z,985.92
2019-05-17T08:09:20.471Z,985.85
2019-05-17T08:10:20.424Z,985.92
2019-05-17T08:11:19.685Z,985.88
2019-05-17T08:12:19.976Z,985.91
2019-05-17T08:13:27.291Z,985.92
2019-05-17T08:14:29.392Z,985.91
2019-05-17T08:15:20.011Z,985.95
2019-05-17T08:16:19.619Z,985.91
2019-05-17T08:17:19.842Z,985.92
2019-05-17T08:18:20.401Z,985.89
2019-05-17T08:19:20.490Z,985.88
2019-05-17T08:20:20.380Z,985.85
2019-05-17T08:21:19.851Z,985.80
2019-05-17T08:22:20.152Z,985.85
2019-05-17T08:23:20.179Z,985.84
2019-05-17T08:24:19.651Z,985.84
2019-05-17T08:25:20.021Z,985.83
2019-05-17T08:26:20.071Z,985.78
2019-05-17T08:27:20.092Z,985.79
2019-05-17T08:28:21.379Z,985.84
2019-05-17T08:29:20.354Z,985.81
2019-05-17T08:30:20.613Z,985.77
2019-05-17T08:31:20.182Z,985.80
2019-05-17T08:32:20.789Z,985.81
2019-05-17T08:33:19.493Z,985.80
2019-05-17T08:34:19.747Z,985.79
2019-05-17T08:35:19.816Z,985.78
2019-05-17T08:36:20.108Z,985.79
2019-05-17T08:37:20.415Z,985.79
2019-05-17T08:38:19.802Z,985.79
2019-05-17T08:39:19.832Z,985.81
2019-05-17T08:40:20.035Z,985.76
2019-05-17T08:41:20.783Z,985.79
2019-05-17T08:42:20.475Z,985.81
2019-05-17T08:43:21.091Z,985.80
2019-05-17T08:44:19.227Z,985.82
2019-05-17T08:45:20.584Z,985.89
2019-05-17T08:46:19.886Z,985.76
2019-05-17T08:47:20.884Z,985.80
2019-05-17T08:48:20.662Z,985.78
2019-05-17T08:49:20.239Z,985.84
2019-05-17T08:50:20.022Z,985.84
2019-05-17T08:51:19.668Z,985.77
2019-05-17T08:52:20.007Z,985.85
2019-05-17T08:53:19.920Z,985.79
2019-05-17T08:54:19.579Z,985.82
2019-05-17T08:55:20.431Z,985.84
2019-05-17T08:56:20.511Z,985.83
2019-05-17T08:57:20.488Z,985.87
2019-05-17T08:58:21.447Z,985.87
2019-05-17T08:59:20.233Z,985.84
2019-05-17T09:00:20.745Z,985.82
2019-05-17T09:01:19.595Z,985.84
2019-05-17T09:02:19.899Z,985.89
2019-05-17T09:03:19.563Z,985.95
2019-05-17T09:04:20.130Z,985.93
2019-05-17T09:05:21.247Z,985.84
2019-05-17T09:06:19.912Z,985.90
2019-05-17T09:07:20.385Z,985.88
2019-05-17T09:08:20.504Z,985.87
2019-05-17T09:09:20.435Z,985.83
2019-05-17T09:10:20.585Z,985.83
2019-05-17T09:11:19.683Z,985.76
2019-05-17T09:12:20.470Z,985.79
2019-05-17T09:13:19.596Z,985.81
2019-05-17T09:14:18.325Z,985.78
2019-05-17T09:15:20.394Z,985.81
2019-05-17T09:16:19.656Z,985.77
2019-05-17T09:17:19.419Z,985.81
2019-05-17T09:18:20.422Z,985.78
2019-05-17T09:19:19.448Z,985.85
2019-05-17T09:20:20.263Z,985.82
2019-05-17T09:21:18.271Z,985.80
2019-05-17T09:22:19.767Z,985.77
2019-05-17T09:23:19.679Z,985.84
2019-05-17T09:24:19.494Z,985.72
2019-05-17T09:25:21.423Z,985.86
2019-05-17T09:26:20.020Z,985.81
2019-05-17T09:27:19.750Z,985.77
2019-05-17T09:28:20.302Z,985.77
2019-05-17T09:29:20.101Z,985.84
2019-05-17T09:30:20.308Z,985.98
2019-05-17T09:31:20.236Z,986.00
2019-05-17T09:32:20.123Z,986.05
2019-05-17T09:33:19.214Z,985.89
2019-05-17T09:34:20.184Z,985.82
2019-05-17T09:35:20.555Z,985.89
2019-05-17T09:36:20.306Z,986.01
2019-05-17T09:37:19.858Z,985.97
2019-05-17T09:38:20.152Z,985.91
2019-05-17T09:39:19.974Z,985.79
2019-05-17T09:40:20.008Z,986.05
2019-05-17T09:41:20.023Z,985.95
2019-05-17T09:42:20.752Z,985.94
2019-05-17T09:43:20.299Z,985.78
2019-05-17T09:44:20.545Z,985.65
2019-05-17T09:45:20.223Z,985.68
2019-05-17T09:46:19.679Z,985.65
2019-05-17T09:47:20.455Z,985.59
2019-05-17T09:48:19.638Z,985.59
2019-05-17T09:49:19.258Z,985.61
2019-05-17T09:50:19.986Z,985.60
2019-05-17T09:51:19.639Z,985.57
2019-05-17T09:52:19.933Z,985.59
2019-05-17T09:53:20.076Z,985.60
2019-05-17T09:54:19.465Z,985.67
2019-05-17T09:55:19.618Z,985.56
2019-05-17T09:56:17.836Z,985.58
2019-05-17T09:57:20.273Z,985.58
2019-05-17T09:58:21.366Z,985.65
2019-05-17T09:59:17.823Z,985.57
2019-05-17T10:00:20.619Z,985.55
2019-05-17T10:01:19.627Z,985.51
2019-05-17T10:02:20.170Z,985.50
2019-05-17T10:03:23.308Z,985.60
2019-05-17T10:04:19.851Z,985.54
2019-05-17T10:05:19.981Z,985.53
2019-05-17T10:06:20.005Z,985.56
2019-05-17T10:07:17.720Z,985.48
2019-05-17T10:08:17.724Z,985.50
2019-05-17T10:09:19.570Z,985.48
2019-05-17T10:10:20.074Z,985.48
2019-05-17T10:11:20.077Z,985.47
2019-05-17T10:12:20.100Z,985.58
2019-05-17T10:13:20.090Z,985.49
2019-05-17T10:14:25.816Z,985.52
2019-05-17T10:15:20.731Z,985.49
2019-05-17T10:16:20.033Z,985.56
2019-05-17T10:17:17.605Z,985.63
2019-05-17T10:18:19.565Z,985.60
2019-05-17T10:19:20.828Z,985.59
2019-05-17T10:20:19.985Z,985.56
2019-05-17T10:21:19.719Z,985.48
2019-05-17T10:22:20.014Z,985.46
2019-05-17T10:23:19.663Z,985.47
2019-05-17T10:24:19.921Z,985.41
2019-05-17T10:25:19.959Z,985.47
2019-05-17T10:26:19.541Z,985.46
2019-05-17T10:27:19.666Z,985.41
2019-05-17T10:28:20.534Z,985.48
2019-05-17T10:29:17.463Z,985.43
2019-05-17T10:30:17.455Z,985.60
2019-05-17T10:31:19.584Z,985.56
2019-05-17T10:32:20.301Z,985.59
2019-05-17T10:33:17.435Z,985.53
2019-05-17T10:34:20.202Z,985.52
2019-05-17T10:35:17.396Z,985.57
2019-05-17T10:36:20.013Z,985.55
2019-05-17T10:37:20.147Z,985.59
2019-05-17T10:38:19.336Z,985.57
2019-05-17T10:39:19.318Z,985.53
2019-05-17T10:40:17.340Z,985.66
2019-05-17T10:41:19.704Z,985.57
2019-05-17T10:42:17.321Z,985.58
2019-05-17T10:43:17.306Z,985.73
2019-05-17T10:44:17.294Z,985.72
2019-05-17T10:45:19.698Z,985.62
2019-05-17T10:46:17.275Z,985.57
2019-05-17T10:47:19.425Z,985.63
2019-05-17T10:48:17.265Z,985.66
2019-05-17T10:49:17.243Z,985.59
2019-05-17T10:50:17.228Z,985.54
2019-05-17T10:51:17.356Z,985.59
2019-05-17T10:52:17.206Z,985.56
2019-05-17T10:53:17.192Z,985.54
2019-05-17T10:54:17.181Z,985.46
2019-05-17T10:55:17.172Z,985.45
2019-05-17T10:56:19.440Z,985.50
2019-05-17T10:57:19.314Z,985.48
2019-05-17T10:58:17.139Z,985.51
2019-05-17T10:59:17.131Z,985.45
2019-05-17T11:00:19.569Z,985.47
2019-05-17T11:01:17.108Z,985.41
2019-05-17T11:02:19.484Z,985.35
2019-05-17T11:03:17.106Z,985.39
2019-05-17T11:04:19.638Z,985.42
2019-05-17T11:05:17.056Z,985.43
2019-05-17T11:06:19.610Z,985.46
2019-05-17T11:07:19.748Z,985.45
2019-05-17T11:08:19.570Z,985.52
2019-05-17T11:09:20.168Z,985.45
2019-05-17T11:10:19.289Z,985.46
2019-05-17T11:11:19.822Z,985.41
2019-05-17T11:12:16.979Z,985.47
2019-05-17T11:13:16.966Z,985.40
2019-05-17T11:14:16.955Z,985.38
2019-05-17T11:15:16.974Z,985.32
2019-05-17T11:16:16.933Z,985.30
2019-05-17T11:17:16.922Z,985.25
2019-05-17T11:18:16.911Z,985.29
2019-05-17T11:19:16.901Z,985.29
2019-05-17T11:20:16.887Z,985.22
2019-05-17T11:21:16.893Z,985.23
2019-05-17T11:22:16.867Z,985.27
2019-05-17T11:23:16.854Z,985.25
2019-05-17T11:24:16.860Z,985.27
2019-05-17T11:25:16.835Z,985.29
2019-05-17T11:26:16.818Z,985.31
2019-05-17T11:27:16.827Z,985.35
2019-05-17T11:28:16.796Z,985.30
2019-05-17T11:29:16.788Z,985.31
2019-05-17T11:30:16.775Z,985.30
2019-05-17T11:31:16.762Z,985.32
2019-05-17T11:32:16.750Z,985.25
2019-05-17T11:33:16.754Z,985.24
2019-05-17T11:34:16.734Z,985.22
2019-05-17T11:35:16.717Z,985.28
2019-05-17T11:36:16.728Z,985.20
2019-05-17T11:37:16.695Z,985.32
2019-05-17T11:38:16.699Z,985.29
2019-05-17T11:39:16.695Z,985.29
2019-05-17T11:40:16.664Z,985.26
2019-05-17T11:41:21.603Z,985.31
2019-05-17T11:42:17.642Z,985.29
2019-05-17T11:43:16.627Z,985.24
2019-05-17T11:44:16.617Z,985.26
2019-05-17T11:45:27.417Z,985.33
2019-05-17T11:46:17.622Z,985.32
2019-05-17T11:47:16.589Z,985.31
2019-05-17T11:48:16.600Z,985.25
2019-05-17T11:49:16.569Z,985.31
2019-05-17T11:50:16.552Z,985.34
2019-05-17T11:51:16.559Z,985.34
2019-05-17T11:52:16.536Z,985.31
2019-05-17T11:53:16.515Z,985.31
2019-05-17T11:54:16.502Z,985.34
2019-05-17T11:55:16.491Z,985.29
2019-05-17T11:56:16.487Z,985.37
2019-05-17T11:57:16.497Z,985.35
2019-05-17T11:58:16.459Z,985.36
2019-05-17T11:59:16.448Z,985.36
2019-05-17T12:00:16.441Z,985.33
2019-05-17T12:01:16.425Z,985.35
2019-05-17T12:02:16.414Z,985.34
2019-05-17T12:03:16.423Z,985.33
2019-05-17T12:04:16.391Z,985.33
2019-05-17T12:05:16.382Z,985.29
2019-05-17T12:06:16.367Z,985.27
2019-05-17T12:07:16.355Z,985.28
2019-05-17T12:08:16.348Z,985.23
2019-05-17T12:09:16.354Z,985.23
2019-05-17T12:10:16.330Z,985.13
2019-05-17T12:11:16.312Z,985.14
2019-05-17T12:12:16.301Z,985.21
2019-05-17T12:13:16.288Z,985.16
2019-05-17T12:14:16.275Z,985.23
2019-05-17T12:15:16.287Z,985.26
2019-05-17T12:16:16.255Z,985.25
2019-05-17T12:17:16.247Z,985.26
2019-05-17T12:18:16.232Z,985.24
2019-05-17T12:19:16.225Z,985.35
2019-05-17T12:20:16.217Z,985.32
2019-05-17T12:21:16.223Z,985.40
2019-05-17T12:22:16.188Z,985.39
2019-05-17T12:23:16.221Z,985.37
2019-05-17T12:24:16.166Z,985.41
2019-05-17T12:25:16.154Z,985.45
2019-05-17T12:26:16.142Z,985.51
2019-05-17T12:27:16.835Z,985.49
2019-05-17T12:28:16.121Z,985.48